Estación Meteorológica Peña el Pijo (Robertgarden) [ 12/17/17 01:23:04 CET ]

Fecha Hora Presion(HPa) Temp (°C) Humedad % Rocio (°C) Viento ( m/s) Direccion Lluvia 1Hora(mm) Lluvia 24H(mm) LLuvia Total(mm)
2017-May-31 01:01:44 1011.300 11.9 82 8.9         1408.96
2017-May-31 02:01:49 1010.800 11.1 83 8.3         1408.96
2017-May-31 03:01:43 1010.900 10.6 84 8.0         1408.96
2017-May-31 04:01:37 1010.700 10.4 85 7.9         1408.96
2017-May-31 05:01:37 1010.900 9.8 86 7.5         1408.96
2017-May-31 06:01:38 1010.800 9.1 87 7.0         1408.96
2017-May-31 07:01:35 1011.400 8.8 87 6.8         1408.96
2017-May-31 08:01:45 1011.600 10.8 89 9.0         1408.96
2017-May-31 09:01:49 1011.800 15.5 87 13.4         1408.96
2017-May-31 10:01:53 1011.800 21.1 63 13.8         1408.96
2017-May-31 11:01:53 1011.400 24.8 52 14.3         1408.96
2017-May-31 12:01:59 1011.200 27.8 42 13.7         1408.96
2017-May-31 13:01:48 1011.000 28.9 37 12.7         1408.96
2017-May-31 14:01:59 1010.800 28.4 40 13.6         1408.96
2017-May-31 15:01:46 1010.700 19.9 62 12.4         1408.96
2017-May-31 16:01:50 1011.200 17.4 77 13.3     2.07 2.07 1411.03
2017-May-31 17:01:58 1010.900 18.6 81 15.3     0.51 2.59 1411.55
2017-May-31 18:01:51 1010.600 19.1 77 15.0       2.59 1411.55
2017-May-31 19:02:01 1010.300 17.4 79 13.7     1.03 3.62 1412.58
2017-May-31 20:01:38 1010.600 20.1 74 15.3       3.62 1412.58
2017-May-31 21:01:37 1011.000 16.7 77 12.6       3.62 1412.58
2017-May-31 22:01:55 1011.400 15.6 80 12.2       3.62 1412.58
2017-May-31 23:01:33 1012.300 14.5 83 11.6       3.62 1412.58

Temperatura Máxima:28°    Temperatura Mínima:
Presión Máxima:1012.300 Hpa    Presión Mínima:1010.300 Hpa


Volver